Pagrindinis puslapis
METAR-TAF:

METAR-TAF

Oro uostai :

Liberija, Kosta Rika

platuma: 10-37N, ilguma: 085-26W, Aukštis: 80 m

Dabartinis oras

Ataskaita buvo paskelbta 50 minutes, ne 21:00 UTC
Vėjas 27 kt iš Rytų/Šiaurės Rytų su gūsio iki 40 kt
Temperatūra 33°C
Drėgmė 34%
Slėgis 1011 hPa
Matomumas 10 km arba daugiau
Mažai debesys ne aukštis 4500 ft

METAR: MRLB 212100Z 06027G40KT 9999 FEW045 33/15 A2985

Laikas: 15:50 (21:50 UTC)

Prognozė

Ataskaita buvo paskelbta 4 valandos ir 50 minutes, ne 17:00 UTC
Prognozė galioja nuo 21 metu 18 UTC su 22 metu 18 UTC
Vėjas 18 kt iš Rytų
Matomumas 10 km arba daugiau
Mažai debesys ne aukštis 4500 ft
Laikinai
nuo 21 metu 18 UTC su 22 metu 06 UTC
Vėjas 21 kt iš Rytų su gūsio iki 32 kt
Laikinai
nuo 22 metu 08 UTC su 22 metu 14 UTC
Vėjas 8 kt iš Rytų/Šiaurės Rytų

TAF: MRLB 211700Z 2118/2218 08018KT 9999 FEW045 TX36/2120Z TN24/2211Z TEMPO 2118/2206 08021G32KT TEMPO 2208/2214 07008KT

Orai ataskaitas ir orų prognozės (METAR, TAF).

turimą stotys yra geltonos ir raudonos taškus žemėlapyje.

Perkelti pele per norėdami pamatyti stoties vardą.

Tada spustelėkite, norėdami matyti oro stebėjimo ir prognozės.

Norėdami pakeisti žemėlapį: spustelėkite ant žalios mygtukų su juodo kryžiaus žemyn,; žalią mygtuką su brūkšneliu, jei norite nutolinti; arba žalių rodyklių gretimoms žemėlapius.


METAR-TAF: